Accueil
METAR-TAF:

METAR-TAF

Aéroports :

Aéroport de Lydd

Lydd, Angleterre

latitude: 50-57N, longitude: 000-56E, altitude: 3 m

Observation

Le bulletin a été fait il y a 19 minutes, à 11:50 UTC
Vent 10 kt de sud/sud-est
Température 6°C
Humidité 81%
Pression 1014 hPa
Visibilité 10 km ou plus
Quelques nuages à une hauteur de 1900 ft
Nuages épars à une hauteur de 2400 ft

METAR: EGMD 211150Z 15010KT 9999 FEW019 SCT024 06/03 Q1014

Heure: 12:09 (12:09 UTC)

Prévision

Le bulletin a été fait il y a 1 heure et 3 minutes, à 11:06 UTC
Prévision valable du 21 à 12 UTC au 21 à 21 UTC
Vent 12 kt de sud/sud-est
Visibilité 10 km ou plus
Nuages épars à une hauteur de 3000 ft
Evoluant progressivement
du 21 à 15 UTC au 21 à 18 UTC
Vent 10 kt de est

TAF: EGMD 211106Z 2112/2121 16012KT 9999 SCT030 BECMG 2115/2118 10010KT

Observations et prévisions météorologiques de plus de 4000 aéroports (messages METAR et TAF).

Les stations disponibles sont représentées par des disques jaunes et rouges sur la carte.

Passer la souris dessus pour voir le nom de la station.

Cliquer dessus pour voir les observations et prévisions météorologiques.

Pour changer de carte: cliquez sur les boutons verts avec une croix noire pour zoomer, sur le bouton vert avec un tiret pour effectuer un zoom arrière, ou sur les flèches vertes pour les cartes adjacentes.


METAR-TAF: